الصفحة الرئيسية
METAR-TAF:

METAR-TAF

مطار :

كورور, Babeldaob, بالاو

مطار ميتشيل رومان الدولي

دائرة عرض: 07-22N, خط طول: 134-32E, ارتفاع: 54 متر

مراقبة الطقس الحالي

تاريخ ووقت الإصدار 1ساعة و 0 دقيقة قبل الساعة 22:50UTC
ريح 7 عقدة من الشرق
درجة الحرارة 27°درجة مئوية
الرطوبة 89%
ضغط 1008 hPa
الرؤية: 24.1 كم
غيوم متفرقة على ارتفاع 1600 قدم
غيوم مفككة على ارتفاع 12000 قدم
غيوم مفككة على ارتفاع 30000 قدم

METAR: PTRO 232250Z 08007KT 15SM SCT016 BKN120 BKN300 27/25 A2977

زمن: 08:50 (23:50 UTC)

توقعات

تاريخ ووقت الإصدار 4 دقيقة قبل الساعة 23:46UTC
التوقعات صالحة من24 الساعة 00 UTC إلى 24 الساعة 24 UTC
ريح 6 عقدةمن اتجاهات متغيرة
الرؤية: 10 كم
غيوم قليلة على ارتفاع 2000 قدم
غيوم متفرقة على ارتفاع 12000 قدم

TAF: PTRO 232346Z 2400/2424 VRB06KT P6SM FEW020 SCT120

أرصاد الطقس والتوقعات من أكثر من 4000 مطار (تقارير الطقس للمطار METAR والتنبؤ بالطقس بالمطارTAF).

المحطات المتاحة هي النقط الصفراء والحمراء على الخريطة.

حرك المؤشر فوق النقطة لمعرفة اسم المحطة.

ثم انقر لمعرفة أرصاد وتوقعات الطقس.

لتغيير الخارطة: اضغط على الأزرار الخضراء مع رمز الصليب الأسود للتكبير. على الزر الأخضر مع شرطة للتصغير، أو على الأسهم الخضراء للخرائط المجاورة.


METAR-TAF: